sensor_id;sensor_type;location;lat;lon;timestamp;P1;durP1;ratioP1;P2;durP2;ratioP2
26598;SDS011;14240;51.064;16.612;2023-03-05T00:01:08;92.10;;;22.92;;
26598;SDS011;14240;51.064;16.612;2023-03-05T00:03:36;82.00;;;21.92;;
26598;SDS011;14240;51.064;16.612;2023-03-05T00:06:02;80.03;;;23.67;;
26598;SDS011;14240;51.064;16.612;2023-03-05T00:08:29;82.13;;;26.25;;
26598;SDS011;14240;51.064;16.612;2023-03-05T00:10:56;86.95;;;27.85;;
26598;SDS011;14240;51.064;16.612;2023-03-05T00:13:23;71.75;;;24.30;;
26598;SDS011;14240;51.064;16.612;2023-03-05T00:15:49;34.42;;;12.05;;
26598;SDS011;14240;51.064;16.612;2023-03-05T00:18:18;20.50;;;6.93;;
26598;SDS011;14240;51.064;16.612;2023-03-05T00:20:44;10.85;;;4.40;;
26598;SDS011;14240;51.064;16.612;2023-03-05T00:23:11;6.90;;;3.63;;
26598;SDS011;14240;51.064;16.612;2023-03-05T00:25:36;11.00;;;4.93;;
26598;SDS011;14240;51.064;16.612;2023-03-05T00:28:03;12.45;;;5.90;;
26598;SDS011;14240;51.064;16.612;2023-03-05T00:30:29;7.93;;;4.18;;
26598;SDS011;14240;51.064;16.612;2023-03-05T00:32:56;5.43;;;3.40;;
26598;SDS011;14240;51.064;16.612;2023-03-05T00:35:22;7.40;;;3.15;;
26598;SDS011;14240;51.064;16.612;2023-03-05T00:37:48;8.18;;;4.13;;
26598;SDS011;14240;51.064;16.612;2023-03-05T00:40:14;8.82;;;2.95;;
26598;SDS011;14240;51.064;16.612;2023-03-05T00:42:39;4.75;;;2.50;;
26598;SDS011;14240;51.064;16.612;2023-03-05T00:45:06;7.90;;;2.58;;
26598;SDS011;14240;51.064;16.612;2023-03-05T00:47:32;8.05;;;2.67;;
26598;SDS011;14240;51.064;16.612;2023-03-05T00:49:58;4.85;;;2.35;;
26598;SDS011;14240;51.064;16.612;2023-03-05T00:52:24;9.75;;;3.13;;
26598;SDS011;14240;51.064;16.612;2023-03-05T00:54:50;10.48;;;5.70;;
26598;SDS011;14240;51.064;16.612;2023-03-05T00:57:16;5.75;;;3.72;;
26598;SDS011;14240;51.064;16.612;2023-03-05T00:59:42;10.88;;;3.78;;
26598;SDS011;14240;51.064;16.612;2023-03-05T01:02:08;11.68;;;3.88;;
26598;SDS011;14240;51.064;16.612;2023-03-05T01:04:34;8.82;;;3.03;;
26598;SDS011;14240;51.064;16.612;2023-03-05T01:07:00;6.13;;;2.53;;
26598;SDS011;14240;51.064;16.612;2023-03-05T01:09:25;6.00;;;2.83;;
26598;SDS011;14240;51.064;16.612;2023-03-05T01:11:51;7.45;;;4.60;;
26598;SDS011;14240;51.064;16.612;2023-03-05T01:14:18;11.50;;;6.50;;
26598;SDS011;14240;51.064;16.612;2023-03-05T01:16:44;9.88;;;4.22;;
26598;SDS011;14240;51.064;16.612;2023-03-05T01:19:11;7.55;;;3.45;;
26598;SDS011;14240;51.064;16.612;2023-03-05T01:21:38;8.32;;;3.17;;
26598;SDS011;14240;51.064;16.612;2023-03-05T01:24:04;7.57;;;2.95;;
26598;SDS011;14240;51.064;16.612;2023-03-05T01:26:30;14.77;;;10.18;;
26598;SDS011;14240;51.064;16.612;2023-03-05T01:28:56;9.25;;;3.88;;
26598;SDS011;14240;51.064;16.612;2023-03-05T01:31:22;9.35;;;2.78;;
26598;SDS011;14240;51.064;16.612;2023-03-05T01:33:50;4.63;;;2.72;;
26598;SDS011;14240;51.064;16.612;2023-03-05T01:36:16;7.03;;;2.53;;
26598;SDS011;14240;51.064;16.612;2023-03-05T01:38:43;7.78;;;2.40;;
26598;SDS011;14240;51.064;16.612;2023-03-05T01:41:10;10.80;;;2.28;;
26598;SDS011;14240;51.064;16.612;2023-03-05T01:43:37;7.45;;;2.40;;
26598;SDS011;14240;51.064;16.612;2023-03-05T01:48:58;6.15;;;1.90;;
26598;SDS011;14240;51.064;16.612;2023-03-05T01:51:50;4.55;;;1.88;;
26598;SDS011;14240;51.064;16.612;2023-03-05T01:54:24;6.47;;;2.55;;
26598;SDS011;14240;51.064;16.612;2023-03-05T01:56:54;11.25;;;8.30;;
26598;SDS011;14240;51.064;16.612;2023-03-05T01:59:23;8.88;;;6.45;;
26598;SDS011;14240;51.064;16.612;2023-03-05T02:04:18;11.55;;;3.60;;
26598;SDS011;14240;51.064;16.612;2023-03-05T02:06:47;9.20;;;3.03;;
26598;SDS011;14240;51.064;16.612;2023-03-05T02:09:14;4.40;;;2.25;;
26598;SDS011;14240;51.064;16.612;2023-03-05T02:11:40;7.95;;;2.85;;
26598;SDS011;14240;51.064;16.612;2023-03-05T02:14:06;14.70;;;4.03;;
26598;SDS011;14240;51.064;16.612;2023-03-05T02:16:33;7.30;;;2.85;;
26598;SDS011;14240;51.064;16.612;2023-03-05T02:19:04;5.55;;;2.53;;
26598;SDS011;14240;51.064;16.612;2023-03-05T02:21:36;6.38;;;2.67;;
26598;SDS011;14240;51.064;16.612;2023-03-05T02:24:02;10.45;;;3.13;;
26598;SDS011;14240;51.064;16.612;2023-03-05T02:26:28;7.80;;;3.25;;
26598;SDS011;14240;51.064;16.612;2023-03-05T02:28:56;12.05;;;4.35;;
26598;SDS011;14240;51.064;16.612;2023-03-05T02:31:25;12.38;;;7.55;;
26598;SDS011;14240;51.064;16.612;2023-03-05T02:33:51;11.85;;;7.38;;
26598;SDS011;14240;51.064;16.612;2023-03-05T02:36:20;12.25;;;6.63;;
26598;SDS011;14240;51.064;16.612;2023-03-05T02:38:46;11.77;;;5.17;;
26598;SDS011;14240;51.064;16.612;2023-03-05T02:41:13;11.52;;;4.93;;
26598;SDS011;14240;51.064;16.612;2023-03-05T02:43:39;7.80;;;4.00;;
26598;SDS011;14240;51.064;16.612;2023-03-05T02:46:05;12.55;;;5.10;;
26598;SDS011;14240;51.064;16.612;2023-03-05T02:48:31;10.32;;;4.05;;
26598;SDS011;14240;51.064;16.612;2023-03-05T02:50:57;8.48;;;3.42;;
26598;SDS011;14240;51.064;16.612;2023-03-05T02:53:24;6.93;;;2.77;;
26598;SDS011;14240;51.064;16.612;2023-03-05T02:55:50;5.53;;;2.55;;
26598;SDS011;14240;51.064;16.612;2023-03-05T02:58:16;4.35;;;2.90;;
26598;SDS011;14240;51.064;16.612;2023-03-05T03:00:42;9.85;;;3.85;;
26598;SDS011;14240;51.064;16.612;2023-03-05T03:03:08;8.40;;;3.55;;
26598;SDS011;14240;51.064;16.612;2023-03-05T03:05:34;6.80;;;2.40;;
26598;SDS011;14240;51.064;16.612;2023-03-05T03:08:00;5.78;;;3.65;;
26598;SDS011;14240;51.064;16.612;2023-03-05T03:10:26;8.90;;;3.67;;
26598;SDS011;14240;51.064;16.612;2023-03-05T03:12:52;10.23;;;4.35;;
26598;SDS011;14240;51.064;16.612;2023-03-05T03:15:18;8.90;;;3.95;;
26598;SDS011;14240;51.064;16.612;2023-03-05T03:17:44;8.65;;;3.72;;
26598;SDS011;14240;51.064;16.612;2023-03-05T03:20:10;8.73;;;3.53;;
26598;SDS011;14240;51.064;16.612;2023-03-05T03:22:38;8.82;;;3.75;;
26598;SDS011;14240;51.064;16.612;2023-03-05T03:25:05;8.15;;;3.10;;
26598;SDS011;14240;51.064;16.612;2023-03-05T03:27:31;10.73;;;4.18;;
26598;SDS011;14240;51.064;16.612;2023-03-05T03:29:57;13.98;;;4.32;;
26598;SDS011;14240;51.064;16.612;2023-03-05T03:32:29;19.77;;;6.47;;
26598;SDS011;14240;51.064;16.612;2023-03-05T03:34:55;18.55;;;7.03;;
26598;SDS011;14240;51.064;16.612;2023-03-05T03:37:21;15.38;;;5.28;;
26598;SDS011;14240;51.064;16.612;2023-03-05T03:39:47;13.15;;;5.03;;
26598;SDS011;14240;51.064;16.612;2023-03-05T03:42:15;13.25;;;5.50;;
26598;SDS011;14240;51.064;16.612;2023-03-05T03:44:41;15.80;;;4.75;;
26598;SDS011;14240;51.064;16.612;2023-03-05T03:47:07;8.00;;;4.68;;
26598;SDS011;14240;51.064;16.612;2023-03-05T03:49:33;12.00;;;4.78;;
26598;SDS011;14240;51.064;16.612;2023-03-05T03:51:59;9.80;;;4.20;;
26598;SDS011;14240;51.064;16.612;2023-03-05T03:54:24;9.35;;;4.03;;
26598;SDS011;14240;51.064;16.612;2023-03-05T03:56:50;13.43;;;4.75;;
26598;SDS011;14240;51.064;16.612;2023-03-05T03:59:16;8.88;;;4.18;;
26598;SDS011;14240;51.064;16.612;2023-03-05T04:01:42;10.85;;;4.97;;
26598;SDS011;14240;51.064;16.612;2023-03-05T04:04:09;11.73;;;4.15;;
26598;SDS011;14240;51.064;16.612;2023-03-05T04:06:36;10.20;;;4.40;;
26598;SDS011;14240;51.064;16.612;2023-03-05T04:09:01;9.35;;;4.00;;
26598;SDS011;14240;51.064;16.612;2023-03-05T04:11:28;10.60;;;4.80;;
26598;SDS011;14240;51.064;16.612;2023-03-05T04:13:54;9.35;;;4.38;;
26598;SDS011;14240;51.064;16.612;2023-03-05T04:16:19;11.57;;;4.28;;
26598;SDS011;14240;51.064;16.612;2023-03-05T04:18:45;12.50;;;4.85;;
26598;SDS011;14240;51.064;16.612;2023-03-05T04:21:11;19.75;;;5.65;;
26598;SDS011;14240;51.064;16.612;2023-03-05T04:23:37;21.17;;;7.78;;
26598;SDS011;14240;51.064;16.612;2023-03-05T04:26:03;10.80;;;4.68;;
26598;SDS011;14240;51.064;16.612;2023-03-05T04:28:29;10.63;;;4.32;;
26598;SDS011;14240;51.064;16.612;2023-03-05T04:30:55;13.68;;;5.30;;
26598;SDS011;14240;51.064;16.612;2023-03-05T04:33:20;7.10;;;4.43;;
26598;SDS011;14240;51.064;16.612;2023-03-05T04:35:46;13.63;;;5.13;;
26598;SDS011;14240;51.064;16.612;2023-03-05T04:38:12;16.30;;;5.35;;
26598;SDS011;14240;51.064;16.612;2023-03-05T04:40:38;9.30;;;4.28;;
26598;SDS011;14240;51.064;16.612;2023-03-05T04:43:04;8.32;;;4.03;;
26598;SDS011;14240;51.064;16.612;2023-03-05T04:45:30;10.13;;;5.20;;
26598;SDS011;14240;51.064;16.612;2023-03-05T04:47:57;12.32;;;4.60;;
26598;SDS011;14240;51.064;16.612;2023-03-05T04:50:22;8.45;;;3.65;;
26598;SDS011;14240;51.064;16.612;2023-03-05T04:52:48;11.45;;;3.72;;
26598;SDS011;14240;51.064;16.612;2023-03-05T04:55:15;9.77;;;4.72;;
26598;SDS011;14240;51.064;16.612;2023-03-05T04:57:42;13.50;;;4.78;;
26598;SDS011;14240;51.064;16.612;2023-03-05T05:00:09;12.15;;;4.80;;
26598;SDS011;14240;51.064;16.612;2023-03-05T05:02:38;8.77;;;5.15;;
26598;SDS011;14240;51.064;16.612;2023-03-05T05:05:06;8.23;;;4.40;;
26598;SDS011;14240;51.064;16.612;2023-03-05T05:07:32;11.50;;;4.07;;
26598;SDS011;14240;51.064;16.612;2023-03-05T05:09:58;13.52;;;4.82;;
26598;SDS011;14240;51.064;16.612;2023-03-05T05:12:26;10.32;;;4.97;;
26598;SDS011;14240;51.064;16.612;2023-03-05T05:14:53;10.20;;;4.93;;
26598;SDS011;14240;51.064;16.612;2023-03-05T05:17:19;10.45;;;4.82;;
26598;SDS011;14240;51.064;16.612;2023-03-05T05:19:45;12.38;;;5.47;;
26598;SDS011;14240;51.064;16.612;2023-03-05T05:22:10;12.70;;;5.30;;
26598;SDS011;14240;51.064;16.612;2023-03-05T05:24:36;22.30;;;6.03;;
26598;SDS011;14240;51.064;16.612;2023-03-05T05:27:02;13.45;;;5.93;;
26598;SDS011;14240;51.064;16.612;2023-03-05T05:29:27;16.10;;;6.13;;
26598;SDS011;14240;51.064;16.612;2023-03-05T05:31:53;13.73;;;5.53;;
26598;SDS011;14240;51.064;16.612;2023-03-05T05:34:20;13.60;;;5.43;;
26598;SDS011;14240;51.064;16.612;2023-03-05T05:36:46;18.42;;;5.90;;
26598;SDS011;14240;51.064;16.612;2023-03-05T05:39:11;25.13;;;10.35;;
26598;SDS011;14240;51.064;16.612;2023-03-05T05:41:37;25.38;;;11.35;;
26598;SDS011;14240;51.064;16.612;2023-03-05T05:44:03;24.63;;;10.98;;
26598;SDS011;14240;51.064;16.612;2023-03-05T05:46:28;17.88;;;8.05;;
26598;SDS011;14240;51.064;16.612;2023-03-05T05:48:54;18.15;;;7.90;;
26598;SDS011;14240;51.064;16.612;2023-03-05T05:51:20;20.55;;;7.50;;
26598;SDS011;14240;51.064;16.612;2023-03-05T05:53:47;20.60;;;7.50;;
26598;SDS011;14240;51.064;16.612;2023-03-05T05:56:13;26.48;;;8.65;;
26598;SDS011;14240;51.064;16.612;2023-03-05T05:58:43;18.63;;;6.22;;
26598;SDS011;14240;51.064;16.612;2023-03-05T06:01:21;16.00;;;5.50;;
26598;SDS011;14240;51.064;16.612;2023-03-05T06:03:50;19.42;;;6.55;;
26598;SDS011;14240;51.064;16.612;2023-03-05T06:06:18;15.85;;;5.95;;
26598;SDS011;14240;51.064;16.612;2023-03-05T06:08:45;25.65;;;10.50;;
26598;SDS011;14240;51.064;16.612;2023-03-05T06:11:12;17.00;;;6.32;;
26598;SDS011;14240;51.064;16.612;2023-03-05T06:13:38;17.05;;;6.00;;
26598;SDS011;14240;51.064;16.612;2023-03-05T06:16:05;23.60;;;5.85;;
26598;SDS011;14240;51.064;16.612;2023-03-05T06:18:34;23.75;;;4.38;;
26598;SDS011;14240;51.064;16.612;2023-03-05T06:21:00;18.35;;;4.63;;
26598;SDS011;14240;51.064;16.612;2023-03-05T06:23:28;15.93;;;4.72;;
26598;SDS011;14240;51.064;16.612;2023-03-05T06:25:54;18.77;;;5.07;;
26598;SDS011;14240;51.064;16.612;2023-03-05T06:28:23;21.63;;;6.72;;
26598;SDS011;14240;51.064;16.612;2023-03-05T06:30:49;20.40;;;5.45;;
26598;SDS011;14240;51.064;16.612;2023-03-05T06:33:14;16.80;;;6.32;;
26598;SDS011;14240;51.064;16.612;2023-03-05T06:35:41;20.25;;;6.13;;
26598;SDS011;14240;51.064;16.612;2023-03-05T06:38:07;17.73;;;6.25;;
26598;SDS011;14240;51.064;16.612;2023-03-05T06:40:34;16.83;;;5.88;;
26598;SDS011;14240;51.064;16.612;2023-03-05T06:43:00;13.10;;;4.50;;
26598;SDS011;14240;51.064;16.612;2023-03-05T06:45:25;12.90;;;4.20;;
26598;SDS011;14240;51.064;16.612;2023-03-05T06:47:51;14.18;;;4.38;;
26598;SDS011;14240;51.064;16.612;2023-03-05T06:50:17;11.85;;;4.65;;
26598;SDS011;14240;51.064;16.612;2023-03-05T06:52:43;18.92;;;4.60;;
26598;SDS011;14240;51.064;16.612;2023-03-05T06:55:08;44.15;;;15.40;;
26598;SDS011;14240;51.064;16.612;2023-03-05T06:57:35;14.57;;;3.53;;
26598;SDS011;14240;51.064;16.612;2023-03-05T07:00:01;14.77;;;4.00;;
26598;SDS011;14240;51.064;16.612;2023-03-05T07:02:33;10.23;;;4.07;;
26598;SDS011;14240;51.064;16.612;2023-03-05T07:05:01;12.35;;;4.55;;
26598;SDS011;14240;51.064;16.612;2023-03-05T07:07:26;12.00;;;3.35;;
26598;SDS011;14240;51.064;16.612;2023-03-05T07:09:52;9.80;;;3.40;;
26598;SDS011;14240;51.064;16.612;2023-03-05T07:12:18;10.30;;;3.17;;
26598;SDS011;14240;51.064;16.612;2023-03-05T07:14:43;14.65;;;3.63;;
26598;SDS011;14240;51.064;16.612;2023-03-05T07:17:09;5.22;;;2.75;;
26598;SDS011;14240;51.064;16.612;2023-03-05T07:19:36;13.13;;;3.20;;
26598;SDS011;14240;51.064;16.612;2023-03-05T07:22:02;6.95;;;2.47;;
26598;SDS011;14240;51.064;16.612;2023-03-05T07:24:28;5.20;;;2.08;;
26598;SDS011;14240;51.064;16.612;2023-03-05T07:26:57;10.63;;;3.78;;
26598;SDS011;14240;51.064;16.612;2023-03-05T07:29:24;11.85;;;2.60;;
26598;SDS011;14240;51.064;16.612;2023-03-05T07:31:50;9.18;;;2.25;;
26598;SDS011;14240;51.064;16.612;2023-03-05T07:34:16;6.93;;;3.05;;
26598;SDS011;14240;51.064;16.612;2023-03-05T07:36:42;6.78;;;1.98;;
26598;SDS011;14240;51.064;16.612;2023-03-05T07:39:09;9.27;;;2.38;;
26598;SDS011;14240;51.064;16.612;2023-03-05T07:41:35;7.00;;;2.30;;
26598;SDS011;14240;51.064;16.612;2023-03-05T07:44:01;15.68;;;3.10;;
26598;SDS011;14240;51.064;16.612;2023-03-05T07:46:28;4.20;;;2.00;;
26598;SDS011;14240;51.064;16.612;2023-03-05T07:48:56;8.18;;;2.85;;
26598;SDS011;14240;51.064;16.612;2023-03-05T07:51:22;11.38;;;3.03;;
26598;SDS011;14240;51.064;16.612;2023-03-05T07:53:50;9.03;;;3.10;;
26598;SDS011;14240;51.064;16.612;2023-03-05T07:59:09;8.32;;;2.78;;
26598;SDS011;14240;51.064;16.612;2023-03-05T08:01:36;8.05;;;3.15;;
26598;SDS011;14240;51.064;16.612;2023-03-05T08:04:03;6.72;;;3.50;;
26598;SDS011;14240;51.064;16.612;2023-03-05T08:06:29;7.70;;;3.50;;
26598;SDS011;14240;51.064;16.612;2023-03-05T08:08:56;17.17;;;4.70;;
26598;SDS011;14240;51.064;16.612;2023-03-05T08:11:22;11.37;;;3.33;;
26598;SDS011;14240;51.064;16.612;2023-03-05T08:13:48;10.70;;;2.95;;
26598;SDS011;14240;51.064;16.612;2023-03-05T08:16:15;9.02;;;3.47;;
26598;SDS011;14240;51.064;16.612;2023-03-05T08:18:42;6.13;;;2.80;;
26598;SDS011;14240;51.064;16.612;2023-03-05T08:21:15;9.25;;;3.83;;
26598;SDS011;14240;51.064;16.612;2023-03-05T08:23:45;8.02;;;2.25;;
26598;SDS011;14240;51.064;16.612;2023-03-05T08:26:16;5.32;;;2.15;;
26598;SDS011;14240;51.064;16.612;2023-03-05T08:28:43;7.35;;;2.78;;
26598;SDS011;14240;51.064;16.612;2023-03-05T08:31:09;7.75;;;3.17;;
26598;SDS011;14240;51.064;16.612;2023-03-05T08:33:36;8.32;;;2.25;;
26598;SDS011;14240;51.064;16.612;2023-03-05T08:36:03;6.63;;;2.00;;
26598;SDS011;14240;51.064;16.612;2023-03-05T08:38:29;8.10;;;2.17;;
26598;SDS011;14240;51.064;16.612;2023-03-05T08:40:55;8.68;;;2.72;;
26598;SDS011;14240;51.064;16.612;2023-03-05T08:43:20;8.68;;;2.95;;
26598;SDS011;14240;51.064;16.612;2023-03-05T08:45:46;6.40;;;2.50;;
26598;SDS011;14240;51.064;16.612;2023-03-05T08:48:13;7.38;;;2.97;;
26598;SDS011;14240;51.064;16.612;2023-03-05T08:50:39;10.25;;;2.95;;
26598;SDS011;14240;51.064;16.612;2023-03-05T08:53:05;13.15;;;3.33;;
26598;SDS011;14240;51.064;16.612;2023-03-05T08:55:31;7.97;;;3.03;;
26598;SDS011;14240;51.064;16.612;2023-03-05T08:57:57;8.82;;;3.00;;
26598;SDS011;14240;51.064;16.612;2023-03-05T09:00:22;15.85;;;3.97;;
26598;SDS011;14240;51.064;16.612;2023-03-05T09:02:48;11.15;;;3.00;;
26598;SDS011;14240;51.064;16.612;2023-03-05T09:05:14;14.75;;;3.83;;
26598;SDS011;14240;51.064;16.612;2023-03-05T09:07:40;6.88;;;2.88;;
26598;SDS011;14240;51.064;16.612;2023-03-05T09:10:05;17.63;;;5.30;;
26598;SDS011;14240;51.064;16.612;2023-03-05T09:12:31;68.38;;;23.60;;
26598;SDS011;14240;51.064;16.612;2023-03-05T09:14:57;52.95;;;19.20;;
26598;SDS011;14240;51.064;16.612;2023-03-05T09:17:23;47.40;;;16.38;;
26598;SDS011;14240;51.064;16.612;2023-03-05T09:19:49;23.98;;;10.00;;
26598;SDS011;14240;51.064;16.612;2023-03-05T09:22:15;47.25;;;16.55;;
26598;SDS011;14240;51.064;16.612;2023-03-05T09:24:40;28.50;;;10.60;;
26598;SDS011;14240;51.064;16.612;2023-03-05T09:27:07;98.50;;;37.28;;
26598;SDS011;14240;51.064;16.612;2023-03-05T09:29:33;52.85;;;20.40;;
26598;SDS011;14240;51.064;16.612;2023-03-05T09:31:58;12.93;;;6.85;;
26598;SDS011;14240;51.064;16.612;2023-03-05T09:34:24;13.82;;;7.25;;
26598;SDS011;14240;51.064;16.612;2023-03-05T09:36:50;10.93;;;4.47;;
26598;SDS011;14240;51.064;16.612;2023-03-05T09:39:16;13.73;;;3.80;;
26598;SDS011;14240;51.064;16.612;2023-03-05T09:42:03;10.23;;;4.25;;
26598;SDS011;14240;51.064;16.612;2023-03-05T09:44:50;9.32;;;4.07;;
26598;SDS011;14240;51.064;16.612;2023-03-05T09:55:45;7.70;;;3.78;;
26598;SDS011;14240;51.064;16.612;2023-03-05T10:01:41;10.48;;;3.70;;
26598;SDS011;14240;51.064;16.612;2023-03-05T10:07:20;7.97;;;3.95;;
26598;SDS011;14240;51.064;16.612;2023-03-05T10:20:36;7.88;;;4.63;;
26598;SDS011;14240;51.064;16.612;2023-03-05T10:23:19;8.43;;;4.15;;
26598;SDS011;14240;51.064;16.612;2023-03-05T10:44:54;8.60;;;3.92;;
26598;SDS011;14240;51.064;16.612;2023-03-05T10:47:36;11.38;;;4.20;;
26598;SDS011;14240;51.064;16.612;2023-03-05T10:50:22;13.48;;;6.07;;
26598;SDS011;14240;51.064;16.612;2023-03-05T10:52:51;9.38;;;4.35;;
26598;SDS011;14240;51.064;16.612;2023-03-05T10:55:45;11.18;;;4.68;;
26598;SDS011;14240;51.064;16.612;2023-03-05T10:58:11;9.43;;;4.57;;
26598;SDS011;14240;51.064;16.612;2023-03-05T11:00:39;8.65;;;4.70;;
26598;SDS011;14240;51.064;16.612;2023-03-05T11:03:07;7.68;;;3.85;;
26598;SDS011;14240;51.064;16.612;2023-03-05T11:13:26;10.60;;;4.20;;
26598;SDS011;14240;51.064;16.612;2023-03-05T11:16:00;25.07;;;9.70;;
26598;SDS011;14240;51.064;16.612;2023-03-05T11:18:28;5.82;;;3.75;;
26598;SDS011;14240;51.064;16.612;2023-03-05T11:21:07;11.52;;;6.22;;
26598;SDS011;14240;51.064;16.612;2023-03-05T11:23:35;6.80;;;4.38;;
26598;SDS011;14240;51.064;16.612;2023-03-05T11:30:56;6.03;;;2.92;;
26598;SDS011;14240;51.064;16.612;2023-03-05T11:33:27;6.53;;;4.60;;
26598;SDS011;14240;51.064;16.612;2023-03-05T11:36:09;5.65;;;3.80;;
26598;SDS011;14240;51.064;16.612;2023-03-05T11:39:30;8.07;;;4.63;;
26598;SDS011;14240;51.064;16.612;2023-03-05T11:41:46;8.43;;;4.45;;
26598;SDS011;14240;51.064;16.612;2023-03-05T11:44:17;10.52;;;4.55;;
26598;SDS011;14240;51.064;16.612;2023-03-05T11:46:46;6.22;;;3.45;;
26598;SDS011;14240;51.064;16.612;2023-03-05T11:49:17;8.75;;;3.45;;
26598;SDS011;14240;51.064;16.612;2023-03-05T11:51:53;8.13;;;4.70;;
26598;SDS011;14240;51.064;16.612;2023-03-05T11:54:39;9.48;;;3.70;;
26598;SDS011;14240;51.064;16.612;2023-03-05T11:57:16;13.32;;;6.65;;
26598;SDS011;14240;51.064;16.612;2023-03-05T11:59:43;15.98;;;6.40;;
26598;SDS011;14240;51.064;16.612;2023-03-05T12:02:20;10.07;;;2.97;;
26598;SDS011;14240;51.064;16.612;2023-03-05T12:07:14;4.63;;;2.90;;
26598;SDS011;14240;51.064;16.612;2023-03-05T12:09:49;5.38;;;3.47;;
26598;SDS011;14240;51.064;16.612;2023-03-05T12:15:03;8.48;;;2.85;;
26598;SDS011;14240;51.064;16.612;2023-03-05T12:21:02;3.75;;;3.05;;
26598;SDS011;14240;51.064;16.612;2023-03-05T12:23:46;5.65;;;2.33;;
26598;SDS011;14240;51.064;16.612;2023-03-05T12:26:52;5.35;;;2.80;;
26598;SDS011;14240;51.064;16.612;2023-03-05T12:29:39;5.90;;;2.90;;
26598;SDS011;14240;51.064;16.612;2023-03-05T12:39:56;4.18;;;2.08;;
26598;SDS011;14240;51.064;16.612;2023-03-05T12:47:41;4.35;;;2.42;;
26598;SDS011;14240;51.064;16.612;2023-03-05T12:52:55;3.95;;;2.38;;
26598;SDS011;14240;51.064;16.612;2023-03-05T13:00:57;4.28;;;3.03;;
26598;SDS011;14240;51.064;16.612;2023-03-05T13:03:39;6.07;;;3.20;;
26598;SDS011;14240;51.064;16.612;2023-03-05T13:06:32;11.32;;;3.28;;
26598;SDS011;14240;51.064;16.612;2023-03-05T13:09:22;8.00;;;3.20;;
26598;SDS011;14240;51.064;16.612;2023-03-05T13:11:49;4.55;;;2.08;;
26598;SDS011;14240;51.064;16.612;2023-03-05T13:19:55;2.83;;;1.90;;
26598;SDS011;14240;51.064;16.612;2023-03-05T13:22:22;9.23;;;4.60;;
26598;SDS011;14240;51.064;16.612;2023-03-05T13:25:02;26.40;;;9.98;;
26598;SDS011;14240;51.064;16.612;2023-03-05T13:27:38;12.93;;;4.90;;
26598;SDS011;14240;51.064;16.612;2023-03-05T13:30:04;10.90;;;7.20;;
26598;SDS011;14240;51.064;16.612;2023-03-05T13:32:31;9.43;;;5.07;;
26598;SDS011;14240;51.064;16.612;2023-03-05T13:34:58;9.52;;;3.88;;
26598;SDS011;14240;51.064;16.612;2023-03-05T13:37:26;6.70;;;4.97;;
26598;SDS011;14240;51.064;16.612;2023-03-05T13:39:55;10.18;;;6.85;;
26598;SDS011;14240;51.064;16.612;2023-03-05T13:42:23;8.55;;;6.68;;
26598;SDS011;14240;51.064;16.612;2023-03-05T13:44:57;12.68;;;6.55;;
26598;SDS011;14240;51.064;16.612;2023-03-05T13:47:26;7.88;;;4.88;;
26598;SDS011;14240;51.064;16.612;2023-03-05T13:50:03;8.32;;;5.10;;
26598;SDS011;14240;51.064;16.612;2023-03-05T13:52:32;8.48;;;4.43;;
26598;SDS011;14240;51.064;16.612;2023-03-05T13:55:00;5.90;;;3.13;;
26598;SDS011;14240;51.064;16.612;2023-03-05T13:57:38;7.43;;;3.03;;
26598;SDS011;14240;51.064;16.612;2023-03-05T14:01:00;4.80;;;2.75;;
26598;SDS011;14240;51.064;16.612;2023-03-05T14:03:10;4.38;;;2.80;;
26598;SDS011;14240;51.064;16.612;2023-03-05T14:05:47;3.78;;;2.58;;
26598;SDS011;14240;51.064;16.612;2023-03-05T14:08:17;6.60;;;3.88;;
26598;SDS011;14240;51.064;16.612;2023-03-05T14:10:46;7.78;;;4.40;;
26598;SDS011;14240;51.064;16.612;2023-03-05T14:13:16;8.27;;;4.18;;
26598;SDS011;14240;51.064;16.612;2023-03-05T14:18:34;6.55;;;3.67;;
26598;SDS011;14240;51.064;16.612;2023-03-05T14:21:18;7.28;;;4.07;;
26598;SDS011;14240;51.064;16.612;2023-03-05T14:23:45;6.68;;;3.30;;
26598;SDS011;14240;51.064;16.612;2023-03-05T14:28:51;12.95;;;6.03;;
26598;SDS011;14240;51.064;16.612;2023-03-05T14:31:19;8.23;;;5.00;;
26598;SDS011;14240;51.064;16.612;2023-03-05T14:33:45;7.10;;;4.05;;
26598;SDS011;14240;51.064;16.612;2023-03-05T14:36:12;12.98;;;5.45;;
26598;SDS011;14240;51.064;16.612;2023-03-05T14:38:39;9.80;;;4.47;;
26598;SDS011;14240;51.064;16.612;2023-03-05T14:46:20;7.97;;;4.20;;
26598;SDS011;14240;51.064;16.612;2023-03-05T14:48:46;7.43;;;4.03;;
26598;SDS011;14240;51.064;16.612;2023-03-05T14:51:12;9.10;;;3.90;;
26598;SDS011;14240;51.064;16.612;2023-03-05T14:53:39;7.07;;;3.80;;
26598;SDS011;14240;51.064;16.612;2023-03-05T14:56:15;8.15;;;5.22;;
26598;SDS011;14240;51.064;16.612;2023-03-05T14:58:49;9.75;;;5.78;;
26598;SDS011;14240;51.064;16.612;2023-03-05T15:01:15;8.07;;;4.47;;
26598;SDS011;14240;51.064;16.612;2023-03-05T15:03:41;8.30;;;4.45;;
26598;SDS011;14240;51.064;16.612;2023-03-05T15:06:07;6.18;;;4.32;;
26598;SDS011;14240;51.064;16.612;2023-03-05T15:08:47;5.95;;;3.92;;
26598;SDS011;14240;51.064;16.612;2023-03-05T15:11:12;7.65;;;3.60;;
26598;SDS011;14240;51.064;16.612;2023-03-05T15:13:38;5.88;;;3.60;;
26598;SDS011;14240;51.064;16.612;2023-03-05T15:16:04;13.27;;;4.80;;
26598;SDS011;14240;51.064;16.612;2023-03-05T15:18:31;8.43;;;3.97;;
26598;SDS011;14240;51.064;16.612;2023-03-05T15:20:57;5.65;;;3.67;;
26598;SDS011;14240;51.064;16.612;2023-03-05T15:23:23;8.45;;;5.75;;
26598;SDS011;14240;51.064;16.612;2023-03-05T15:25:48;6.32;;;3.70;;
26598;SDS011;14240;51.064;16.612;2023-03-05T15:28:14;8.30;;;4.80;;
26598;SDS011;14240;51.064;16.612;2023-03-05T15:30:41;10.25;;;4.10;;
26598;SDS011;14240;51.064;16.612;2023-03-05T15:33:11;9.00;;;4.53;;
26598;SDS011;14240;51.064;16.612;2023-03-05T15:35:39;10.80;;;5.38;;
26598;SDS011;14240;51.064;16.612;2023-03-05T15:38:05;12.45;;;6.05;;
26598;SDS011;14240;51.064;16.612;2023-03-05T15:40:31;21.88;;;8.25;;
26598;SDS011;14240;51.064;16.612;2023-03-05T15:42:58;31.13;;;10.88;;
26598;SDS011;14240;51.064;16.612;2023-03-05T15:45:25;33.60;;;12.70;;
26598;SDS011;14240;51.064;16.612;2023-03-05T15:47:51;70.53;;;22.20;;
26598;SDS011;14240;51.064;16.612;2023-03-05T15:50:18;68.93;;;23.83;;
26598;SDS011;14240;51.064;16.612;2023-03-05T15:52:45;63.33;;;21.90;;
26598;SDS011;14240;51.064;16.612;2023-03-05T15:55:11;72.40;;;21.75;;
26598;SDS011;14240;51.064;16.612;2023-03-05T15:57:41;61.25;;;17.98;;
26598;SDS011;14240;51.064;16.612;2023-03-05T16:00:10;57.05;;;19.33;;
26598;SDS011;14240;51.064;16.612;2023-03-05T16:02:37;107.50;;;32.78;;
26598;SDS011;14240;51.064;16.612;2023-03-05T16:05:03;171.10;;;50.22;;
26598;SDS011;14240;51.064;16.612;2023-03-05T16:07:30;49.03;;;17.00;;
26598;SDS011;14240;51.064;16.612;2023-03-05T16:12:24;16.75;;;8.43;;
26598;SDS011;14240;51.064;16.612;2023-03-05T16:14:52;19.38;;;9.18;;
26598;SDS011;14240;51.064;16.612;2023-03-05T16:17:18;10.65;;;4.95;;
26598;SDS011;14240;51.064;16.612;2023-03-05T16:19:47;20.42;;;9.70;;
26598;SDS011;14240;51.064;16.612;2023-03-05T16:22:15;26.88;;;11.57;;
26598;SDS011;14240;51.064;16.612;2023-03-05T16:24:41;15.30;;;8.15;;
26598;SDS011;14240;51.064;16.612;2023-03-05T16:27:07;24.27;;;16.48;;